sensor_id;sensor_type;location;lat;lon;timestamp;pressure;altitude;pressure_sealevel;temperature
67501;BMP180;54349;52.528;19.760;2023-07-28T01:08:12;99623.20;;;19.62
67501;BMP180;54349;52.528;19.760;2023-07-28T01:10:45;99618.00;;;18.90
67501;BMP180;54349;52.528;19.760;2023-07-28T01:13:15;99622.60;;;19.10
67501;BMP180;54349;52.528;19.760;2023-07-28T01:16:17;99624.60;;;19.34
67501;BMP180;54349;52.528;19.760;2023-07-28T01:18:45;99624.80;;;19.60
67501;BMP180;54349;52.528;19.760;2023-07-28T01:21:32;99622.20;;;19.80
67501;BMP180;54349;52.528;19.760;2023-07-28T01:24:58;99617.60;;;18.90
67501;BMP180;54349;52.528;19.760;2023-07-28T05:44:29;99480.60;;;19.00
67501;BMP180;54349;52.528;19.760;2023-07-28T05:46:59;99482.40;;;19.20
67501;BMP180;54349;52.528;19.760;2023-07-28T05:50:00;99480.80;;;19.46
67501;BMP180;54349;52.528;19.760;2023-07-28T05:52:32;99479.80;;;19.70
67501;BMP180;54349;52.528;19.760;2023-07-28T05:55:01;99476.00;;;19.74
67501;BMP180;54349;52.528;19.760;2023-07-28T05:57:30;99472.60;;;18.94
67501;BMP180;54349;52.528;19.760;2023-07-28T06:00:00;99478.40;;;19.00
67501;BMP180;54349;52.528;19.760;2023-07-28T07:08:45;99468.60;;;18.84
67501;BMP180;54349;52.528;19.760;2023-07-28T07:11:20;99471.60;;;19.10
67501;BMP180;54349;52.528;19.760;2023-07-28T07:14:17;99471.60;;;19.40
67501;BMP180;54349;52.528;19.760;2023-07-28T07:16:45;99477.80;;;19.62
67501;BMP180;54349;52.528;19.760;2023-07-28T07:19:16;99475.40;;;19.64
67501;BMP180;54349;52.528;19.760;2023-07-28T07:22:02;99471.60;;;19.00
67501;BMP180;54349;52.528;19.760;2023-07-28T07:24:32;99471.60;;;19.24
67501;BMP180;54349;52.528;19.760;2023-07-28T07:27:01;99468.80;;;19.50
67501;BMP180;54349;52.528;19.760;2023-07-28T07:35:56;99467.20;;;19.00
67501;BMP180;54349;52.528;19.760;2023-07-28T07:38:24;99461.80;;;19.30
67501;BMP180;54349;52.528;19.760;2023-07-28T07:40:57;99464.80;;;19.60
67501;BMP180;54349;52.528;19.760;2023-07-28T07:43:31;99461.40;;;19.80
67501;BMP180;54349;52.528;19.760;2023-07-28T07:45:59;99461.40;;;19.14
67501;BMP180;54349;52.528;19.760;2023-07-28T07:48:28;99460.60;;;19.08
67501;BMP180;54349;52.528;19.760;2023-07-28T07:50:59;99457.40;;;19.34
67501;BMP180;54349;52.528;19.760;2023-07-28T07:53:33;99459.00;;;19.60
67501;BMP180;54349;52.528;19.760;2023-07-28T09:14:58;99441.60;;;17.16
67501;BMP180;54349;52.528;19.760;2023-07-28T09:17:32;99435.20;;;16.98
67501;BMP180;54349;52.528;19.760;2023-07-28T09:20:16;99437.20;;;16.82
67501;BMP180;54349;52.528;19.760;2023-07-28T09:22:54;99441.60;;;16.74
67501;BMP180;54349;52.528;19.760;2023-07-28T09:25:47;99444.60;;;17.32
67501;BMP180;54349;52.528;19.760;2023-07-28T09:28:16;99445.00;;;18.00
67501;BMP180;54349;52.528;19.760;2023-07-28T09:30:52;99449.00;;;18.58
67501;BMP180;54349;52.528;19.760;2023-07-28T09:33:31;99450.60;;;19.00
67501;BMP180;54349;52.528;19.760;2023-07-28T10:29:56;99410.20;;;16.60
67501;BMP180;54349;52.528;19.760;2023-07-28T10:32:28;99406.40;;;16.60
67501;BMP180;54349;52.528;19.760;2023-07-28T10:35:08;99406.40;;;16.60
67501;BMP180;54349;52.528;19.760;2023-07-28T10:37:51;99404.60;;;16.70
67501;BMP180;54349;52.528;19.760;2023-07-28T10:40:32;99407.00;;;17.28
67501;BMP180;54349;52.528;19.760;2023-07-28T10:43:06;99407.80;;;17.90
67501;BMP180;54349;52.528;19.760;2023-07-28T10:45:37;99409.80;;;18.40
67501;BMP180;54349;52.528;19.760;2023-07-28T13:15:01;99381.20;;;19.12
67501;BMP180;54349;52.528;19.760;2023-07-28T13:17:40;99360.80;;;18.70
67501;BMP180;54349;52.528;19.760;2023-07-28T13:20:12;99357.80;;;18.44
67501;BMP180;54349;52.528;19.760;2023-07-28T13:22:40;99358.00;;;18.24
67501;BMP180;54349;52.528;19.760;2023-07-28T13:25:09;99351.20;;;18.00
67501;BMP180;54349;52.528;19.760;2023-07-28T13:27:51;99348.20;;;17.70
67501;BMP180;54349;52.528;19.760;2023-07-28T13:30:21;99354.60;;;17.44
67501;BMP180;54349;52.528;19.760;2023-07-28T13:32:49;99415.60;;;17.22
67501;BMP180;54349;52.528;19.760;2023-07-28T15:17:28;99438.40;;;18.60
67501;BMP180;54349;52.528;19.760;2023-07-28T15:20:12;99444.40;;;19.04
67501;BMP180;54349;52.528;19.760;2023-07-28T15:22:41;99449.20;;;19.30
67501;BMP180;54349;52.528;19.760;2023-07-28T15:25:09;99451.00;;;18.84
67501;BMP180;54349;52.528;19.760;2023-07-28T15:27:44;99452.60;;;18.34
67501;BMP180;54349;52.528;19.760;2023-07-28T15:30:16;99448.60;;;17.98
67501;BMP180;54349;52.528;19.760;2023-07-28T15:32:44;99454.60;;;17.64
67501;BMP180;54349;52.528;19.760;2023-07-28T16:15:42;99470.60;;;18.58
67501;BMP180;54349;52.528;19.760;2023-07-28T16:18:13;99471.00;;;19.00
67501;BMP180;54349;52.528;19.760;2023-07-28T16:20:42;99472.00;;;19.20
67501;BMP180;54349;52.528;19.760;2023-07-28T16:23:21;99479.00;;;18.70
67501;BMP180;54349;52.528;19.760;2023-07-28T16:26:05;99481.80;;;18.20
67501;BMP180;54349;52.528;19.760;2023-07-28T16:28:33;99482.40;;;17.88
67501;BMP180;54349;52.528;19.760;2023-07-28T16:31:05;99475.00;;;17.54
67501;BMP180;54349;52.528;19.760;2023-07-28T19:18:00;99635.60;;;19.00
67501;BMP180;54349;52.528;19.760;2023-07-28T19:20:30;99633.60;;;18.24
67501;BMP180;54349;52.528;19.760;2023-07-28T19:22:58;99632.40;;;17.80
67501;BMP180;54349;52.528;19.760;2023-07-28T19:25:43;99634.60;;;17.42
67501;BMP180;54349;52.528;19.760;2023-07-28T19:28:12;99631.00;;;17.20
67501;BMP180;54349;52.528;19.760;2023-07-28T19:30:42;99634.60;;;17.00
67501;BMP180;54349;52.528;19.760;2023-07-28T19:33:17;99642.00;;;16.80
67501;BMP180;54349;52.528;19.760;2023-07-28T23:15:01;99800.80;;;18.70
67501;BMP180;54349;52.528;19.760;2023-07-28T23:18:01;99805.80;;;19.10
67501;BMP180;54349;52.528;19.760;2023-07-28T23:20:31;99810.00;;;19.30
67501;BMP180;54349;52.528;19.760;2023-07-28T23:23:00;99813.00;;;19.56
67501;BMP180;54349;52.528;19.760;2023-07-28T23:25:46;99813.40;;;19.36
67501;BMP180;54349;52.528;19.760;2023-07-28T23:28:14;99816.60;;;18.80
67501;BMP180;54349;52.528;19.760;2023-07-28T23:30:42;99817.60;;;19.00
67501;BMP180;54349;52.528;19.760;2023-07-28T23:33:54;99822.80;;;19.30
